createdAt,value
2023-04-02T00:01:39.211Z,14.82
2023-04-02T00:04:14.786Z,16.05
2023-04-02T00:06:45.881Z,15.02
2023-04-02T00:09:15.754Z,14.82
2023-04-02T00:11:48.794Z,15.35
2023-04-02T00:16:46.112Z,15.40
2023-04-02T00:19:20.002Z,14.48
2023-04-02T00:21:48.358Z,15.00
2023-04-02T00:24:21.351Z,14.43
2023-04-02T00:26:51.490Z,15.35
2023-04-02T00:29:20.358Z,15.50
2023-04-02T00:31:55.424Z,14.88
2023-04-02T00:34:33.930Z,15.45
2023-04-02T00:37:02.017Z,15.13
2023-04-02T00:39:33.337Z,14.52
2023-04-02T00:42:06.545Z,12.80
2023-04-02T00:44:38.790Z,14.98
2023-04-02T00:47:21.736Z,16.10
2023-04-02T00:49:57.451Z,15.05
2023-04-02T00:52:31.185Z,15.63
2023-04-02T00:57:33.744Z,14.60
2023-04-02T01:00:12.764Z,14.65
2023-04-02T01:02:41.207Z,15.02
2023-04-02T01:05:15.082Z,14.27
2023-04-02T01:08:13.240Z,14.40
2023-04-02T01:11:18.307Z,15.35
2023-04-02T01:14:23.275Z,14.70
2023-04-02T01:17:00.562Z,15.10
2023-04-02T01:20:01.389Z,15.40
2023-04-02T01:22:58.072Z,13.77
2023-04-02T01:25:35.896Z,13.48
2023-04-02T01:28:21.509Z,13.18
2023-04-02T01:30:55.475Z,13.27
2023-04-02T01:33:24.956Z,15.07
2023-04-02T01:36:01.886Z,13.25
2023-04-02T01:38:37.037Z,14.00
2023-04-02T01:41:14.151Z,15.38
2023-04-02T01:43:56.421Z,12.70
2023-04-02T01:46:26.369Z,13.05
2023-04-02T01:48:55.599Z,14.27
2023-04-02T01:51:33.744Z,13.32
2023-04-02T01:54:06.316Z,13.98
2023-04-02T01:56:35.728Z,13.05
2023-04-02T01:59:06.104Z,13.13
2023-04-02T02:01:44.943Z,12.93
2023-04-02T02:04:16.594Z,13.13
2023-04-02T02:06:44.385Z,13.07
2023-04-02T02:09:34.518Z,12.80
2023-04-02T02:12:03.627Z,12.05
2023-04-02T02:14:31.882Z,12.60
2023-04-02T02:17:04.247Z,12.55
2023-04-02T02:19:49.263Z,11.40
2023-04-02T02:22:27.876Z,12.07
2023-04-02T02:24:57.753Z,12.52
2023-04-02T02:27:25.831Z,14.43
2023-04-02T02:30:27.217Z,13.55
2023-04-02T02:33:02.082Z,11.45
2023-04-02T02:35:41.234Z,11.73
2023-04-02T02:38:46.693Z,12.82
2023-04-02T02:41:26.632Z,13.05
2023-04-02T02:44:11.521Z,11.80
2023-04-02T02:49:20.707Z,11.70
2023-04-02T02:51:56.196Z,11.38
2023-04-02T02:54:33.074Z,12.10
2023-04-02T02:57:05.797Z,12.30
2023-04-02T02:59:34.170Z,13.07
2023-04-02T03:02:05.233Z,12.27
2023-04-02T03:04:35.906Z,13.35
2023-04-02T03:07:11.928Z,12.90
2023-04-02T03:09:50.106Z,12.27
2023-04-02T03:12:28.151Z,11.48
2023-04-02T03:15:14.011Z,11.07
2023-04-02T03:18:12.400Z,11.82
2023-04-02T03:20:50.060Z,11.77
2023-04-02T03:23:23.460Z,12.02
2023-04-02T03:26:00.960Z,11.25
2023-04-02T03:28:35.788Z,12.88
2023-04-02T03:31:08.382Z,10.30
2023-04-02T03:33:59.486Z,10.23
2023-04-02T03:36:43.786Z,11.18
2023-04-02T03:39:16.586Z,8.93
2023-04-02T03:41:53.079Z,10.65
2023-04-02T03:44:28.954Z,9.98
2023-04-02T03:47:10.832Z,9.65
2023-04-02T03:49:58.824Z,10.88
2023-04-02T03:52:29.412Z,9.23
2023-04-02T03:55:02.105Z,10.85
2023-04-02T03:57:40.658Z,10.73
2023-04-02T04:00:07.966Z,9.45
2023-04-02T04:02:53.483Z,10.32
2023-04-02T04:05:30.080Z,8.30
2023-04-02T04:08:08.604Z,9.35
2023-04-02T04:10:36.402Z,8.90
2023-04-02T04:13:21.346Z,10.70
2023-04-02T04:15:58.842Z,9.73
2023-04-02T04:18:41.090Z,9.35
2023-04-02T04:21:30.289Z,10.65
2023-04-02T04:24:17.803Z,7.93
2023-04-02T04:26:55.401Z,8.50
2023-04-02T04:29:32.839Z,10.00
2023-04-02T04:32:27.833Z,9.80
2023-04-02T04:35:06.337Z,9.73
2023-04-02T04:37:40.974Z,10.23
2023-04-02T04:40:24.073Z,9.40
2023-04-02T04:42:58.223Z,10.75
2023-04-02T04:45:29.119Z,10.52
2023-04-02T04:48:16.393Z,10.60
2023-04-02T04:51:01.482Z,11.23
2023-04-02T04:53:31.208Z,10.77
2023-04-02T04:56:16.463Z,9.95
2023-04-02T04:58:56.968Z,10.82
2023-04-02T05:01:29.738Z,10.88
2023-04-02T05:06:57.498Z,9.67
2023-04-02T05:09:34.312Z,12.77
2023-04-02T05:12:34.831Z,11.27
2023-04-02T05:15:06.819Z,11.25
2023-04-02T05:17:53.930Z,12.68
2023-04-02T05:20:24.466Z,12.30
2023-04-02T05:23:00.985Z,11.07
2023-04-02T05:25:30.546Z,12.38
2023-04-02T05:28:33.968Z,12.85
2023-04-02T05:31:15.101Z,11.35
2023-04-02T05:33:49.123Z,11.60
2023-04-02T05:36:29.508Z,13.23
2023-04-02T05:39:01.072Z,12.07
2023-04-02T05:41:46.168Z,11.48
2023-04-02T05:44:31.825Z,12.70
2023-04-02T05:47:06.848Z,12.20
2023-04-02T05:49:50.760Z,12.65
2023-04-02T05:52:34.266Z,13.40
2023-04-02T05:55:04.920Z,13.20
2023-04-02T05:58:01.193Z,13.30
2023-04-02T06:00:38.110Z,13.75
2023-04-02T06:03:17.024Z,12.80
2023-04-02T06:05:46.612Z,13.70
2023-04-02T06:08:30.573Z,12.80
2023-04-02T06:11:24.277Z,11.18
2023-04-02T06:13:53.069Z,11.68
2023-04-02T06:16:27.480Z,12.85
2023-04-02T06:18:55.957Z,13.55
2023-04-02T06:21:23.368Z,13.27
2023-04-02T06:24:00.587Z,13.75
2023-04-02T06:26:37.358Z,11.32
2023-04-02T06:29:12.484Z,13.65
2023-04-02T06:31:43.482Z,12.27
2023-04-02T06:34:21.235Z,15.02
2023-04-02T06:37:03.677Z,11.93
2023-04-02T06:39:33.345Z,11.20
2023-04-02T06:42:11.969Z,11.32
2023-04-02T06:44:58.108Z,11.98
2023-04-02T06:47:47.616Z,14.88
2023-04-02T06:51:10.987Z,10.43
2023-04-02T06:53:43.918Z,13.82
2023-04-02T06:56:25.955Z,12.80
2023-04-02T06:58:54.049Z,11.45
2023-04-02T07:01:32.244Z,11.85
2023-04-02T07:04:02.102Z,13.80
2023-04-02T07:06:35.998Z,13.68
2023-04-02T07:09:04.795Z,14.50
2023-04-02T07:11:34.130Z,12.77
2023-04-02T07:14:04.980Z,14.10
2023-04-02T07:16:36.820Z,14.48
2023-04-02T07:19:04.680Z,12.88
2023-04-02T07:21:34.636Z,12.13
2023-04-02T07:24:02.104Z,15.02
2023-04-02T07:26:29.341Z,14.55
2023-04-02T07:28:57.187Z,12.85
2023-04-02T07:31:27.373Z,12.68
2023-04-02T07:33:58.647Z,12.57
2023-04-02T07:36:27.224Z,11.85
2023-04-02T07:38:54.551Z,12.77
2023-04-02T07:41:22.127Z,14.10
2023-04-02T07:43:49.446Z,13.60
2023-04-02T07:46:18.346Z,11.73
2023-04-02T07:48:46.670Z,12.75
2023-04-02T07:51:22.024Z,14.50
2023-04-02T07:53:56.163Z,13.15
2023-04-02T07:56:25.540Z,11.75
2023-04-02T07:58:53.170Z,13.35
2023-04-02T08:01:24.521Z,11.65
2023-04-02T08:03:57.179Z,13.70
2023-04-02T08:06:24.897Z,14.00
2023-04-02T08:08:52.416Z,13.77
2023-04-02T08:11:19.822Z,13.48
2023-04-02T08:13:47.091Z,11.73
2023-04-02T08:16:14.829Z,14.35
2023-04-02T08:18:42.091Z,14.10
2023-04-02T08:21:10.753Z,11.85
2023-04-02T08:23:38.422Z,14.70
2023-04-02T08:26:06.650Z,12.75
2023-04-02T08:28:34.350Z,13.93
2023-04-02T08:31:02.387Z,14.60
2023-04-02T08:33:29.477Z,12.80
2023-04-02T08:35:57.546Z,10.35
2023-04-02T08:38:26.016Z,12.15
2023-04-02T08:40:57.150Z,12.30
2023-04-02T08:43:39.166Z,14.63
2023-04-02T08:46:09.237Z,14.30
2023-04-02T08:48:40.749Z,13.88
2023-04-02T08:51:25.969Z,13.32
2023-04-02T08:54:02.140Z,11.52
2023-04-02T08:56:53.161Z,11.82
2023-04-02T08:59:38.075Z,13.23
2023-04-02T09:02:14.419Z,12.63
2023-04-02T09:04:41.997Z,12.55
2023-04-02T09:07:16.811Z,12.23
2023-04-02T09:09:48.863Z,11.77
2023-04-02T09:12:20.642Z,13.18
2023-04-02T09:15:13.229Z,11.73
2023-04-02T09:17:53.010Z,10.85
2023-04-02T09:20:29.549Z,11.55
2023-04-02T09:22:57.392Z,11.15
2023-04-02T09:25:28.251Z,12.38
2023-04-02T09:27:57.355Z,11.35
2023-04-02T09:30:49.581Z,10.88
2023-04-02T09:33:16.981Z,10.48
2023-04-02T09:35:50.239Z,9.48
2023-04-02T09:38:24.663Z,9.65
2023-04-02T09:40:54.091Z,9.63
2023-04-02T09:43:26.536Z,10.93
2023-04-02T09:46:01.789Z,10.18
2023-04-02T09:48:40.913Z,9.02
2023-04-02T09:51:14.016Z,11.18
2023-04-02T09:53:50.412Z,9.52
2023-04-02T09:56:26.672Z,10.85
2023-04-02T09:59:12.704Z,9.85
2023-04-02T10:01:41.672Z,10.70
2023-04-02T10:04:44.559Z,11.82
2023-04-02T10:07:36.333Z,11.10
2023-04-02T10:10:25.263Z,12.38
2023-04-02T10:13:20.387Z,13.25
2023-04-02T10:15:52.229Z,12.20
2023-04-02T10:18:59.043Z,11.98
2023-04-02T10:21:33.259Z,11.77
2023-04-02T10:24:03.112Z,13.32
2023-04-02T10:26:52.229Z,14.25
2023-04-02T10:29:34.644Z,13.90
2023-04-02T10:32:18.794Z,12.20
2023-04-02T10:35:03.830Z,11.75
2023-04-02T10:37:46.401Z,12.57
2023-04-02T10:40:24.474Z,14.43
2023-04-02T10:42:54.372Z,13.18
2023-04-02T10:45:39.318Z,11.60
2023-04-02T10:48:40.841Z,11.80
2023-04-02T10:51:33.794Z,12.27
2023-04-02T10:54:10.639Z,13.02
2023-04-02T10:56:49.966Z,12.30
2023-04-02T10:59:23.371Z,11.52
2023-04-02T11:01:52.877Z,12.13
2023-04-02T11:04:28.372Z,12.00
2023-04-02T11:07:13.900Z,10.35
2023-04-02T11:09:45.805Z,10.95
2023-04-02T11:12:46.954Z,11.50
2023-04-02T11:15:19.368Z,12.57
2023-04-02T11:17:47.492Z,11.73
2023-04-02T11:20:49.063Z,11.20
2023-04-02T11:23:21.381Z,11.50
2023-04-02T11:25:49.244Z,10.82
2023-04-02T11:28:30.619Z,11.70
2023-04-02T11:30:58.895Z,11.27
2023-04-02T11:33:38.398Z,12.73
2023-04-02T11:36:46.445Z,10.35
2023-04-02T11:39:17.299Z,11.93
2023-04-02T11:42:03.092Z,11.80
2023-04-02T11:44:30.326Z,12.90
2023-04-02T11:47:16.361Z,16.58
2023-04-02T11:49:55.854Z,11.45
2023-04-02T11:52:34.540Z,11.85
2023-04-02T11:55:18.592Z,11.15
2023-04-02T11:57:58.487Z,11.75
2023-04-02T12:00:37.058Z,11.00
2023-04-02T12:03:42.836Z,12.07
2023-04-02T12:06:27.265Z,9.60
2023-04-02T12:09:04.916Z,10.82
2023-04-02T12:11:35.471Z,11.68
2023-04-02T12:14:27.061Z,12.07
2023-04-02T12:16:55.026Z,11.00
2023-04-02T12:19:23.516Z,12.00
2023-04-02T12:21:56.556Z,12.13
2023-04-02T12:27:22.720Z,11.13
2023-04-02T12:29:53.300Z,10.68
2023-04-02T12:32:28.511Z,10.82
2023-04-02T12:34:59.058Z,9.70
2023-04-02T12:37:29.741Z,10.23
2023-04-02T12:40:07.291Z,11.10
2023-04-02T12:42:37.344Z,9.98
2023-04-02T12:45:07.033Z,11.13
2023-04-02T12:47:34.420Z,11.40
2023-04-02T12:50:02.600Z,10.73
2023-04-02T12:52:31.129Z,10.82
2023-04-02T12:55:01.454Z,13.25
2023-04-02T12:57:32.499Z,10.73
2023-04-02T13:00:22.258Z,10.38
2023-04-02T13:03:01.417Z,12.15
2023-04-02T13:05:36.326Z,11.65
2023-04-02T13:08:05.824Z,11.70
2023-04-02T13:10:35.386Z,10.15
2023-04-02T13:13:04.142Z,11.32
2023-04-02T13:15:36.800Z,11.27
2023-04-02T13:18:20.431Z,12.43
2023-04-02T13:21:03.315Z,11.43
2023-04-02T13:23:31.114Z,11.63
2023-04-02T13:26:01.434Z,7.93
2023-04-02T13:28:29.075Z,10.88
2023-04-02T13:30:56.654Z,11.85
2023-04-02T13:33:23.968Z,10.40
2023-04-02T13:35:51.170Z,10.50
2023-04-02T13:38:18.683Z,10.93
2023-04-02T13:40:46.575Z,10.57
2023-04-02T13:43:19.922Z,11.05
2023-04-02T13:45:52.904Z,10.52
2023-04-02T13:48:24.531Z,11.82
2023-04-02T13:50:53.085Z,11.48
2023-04-02T13:53:25.296Z,11.02
2023-04-02T13:55:52.861Z,11.82
2023-04-02T13:58:20.168Z,12.52
2023-04-02T14:00:48.054Z,12.73
2023-04-02T14:03:24.070Z,12.40
2023-04-02T14:06:03.110Z,12.38
2023-04-02T14:08:44.782Z,11.77
2023-04-02T14:11:30.620Z,10.20
2023-04-02T14:13:57.882Z,9.80
2023-04-02T14:16:47.039Z,9.32
2023-04-02T14:19:46.405Z,9.60
2023-04-02T14:22:25.594Z,9.32
2023-04-02T14:25:07.998Z,9.60
2023-04-02T14:27:44.565Z,11.13
2023-04-02T14:30:18.085Z,8.65
2023-04-02T14:33:17.575Z,9.38
2023-04-02T14:35:47.221Z,13.05
2023-04-02T14:38:37.236Z,9.13
2023-04-02T14:41:13.840Z,7.05
2023-04-02T14:43:55.026Z,8.35
2023-04-02T14:46:27.784Z,9.40
2023-04-02T14:51:40.942Z,8.05
2023-04-02T14:54:33.798Z,8.43
2023-04-02T14:57:34.332Z,7.78
2023-04-02T15:00:20.767Z,9.15
2023-04-02T15:02:53.503Z,6.75
2023-04-02T15:05:22.932Z,7.30
2023-04-02T15:07:57.929Z,8.32
2023-04-02T15:10:32.070Z,8.68
2023-04-02T15:13:06.791Z,7.63
2023-04-02T15:15:44.761Z,8.13
2023-04-02T15:18:18.048Z,8.18
2023-04-02T15:20:45.613Z,8.25
2023-04-02T15:23:39.178Z,9.73
2023-04-02T15:26:21.950Z,7.07
2023-04-02T15:29:03.291Z,8.40
2023-04-02T15:31:33.978Z,8.07
2023-04-02T15:34:19.698Z,9.50
2023-04-02T15:37:01.805Z,6.90
2023-04-02T15:39:44.704Z,6.43
2023-04-02T15:42:33.358Z,7.78
2023-04-02T15:45:13.129Z,9.35
2023-04-02T15:48:06.780Z,7.95
2023-04-02T15:50:53.873Z,8.02
2023-04-02T15:53:48.418Z,7.80
2023-04-02T15:56:52.163Z,8.63
2023-04-02T15:59:31.278Z,7.88
2023-04-02T16:02:14.192Z,8.30
2023-04-02T16:04:41.881Z,8.90
2023-04-02T16:07:27.657Z,9.38
2023-04-02T16:10:13.019Z,9.48
2023-04-02T16:12:41.934Z,11.20
2023-04-02T16:15:19.329Z,10.07
2023-04-02T16:17:49.931Z,8.75
2023-04-02T16:20:27.513Z,8.35
2023-04-02T16:23:02.324Z,8.50
2023-04-02T16:25:56.671Z,8.48
2023-04-02T16:28:33.571Z,8.52
2023-04-02T16:31:10.031Z,9.70
2023-04-02T16:33:59.820Z,9.95
2023-04-02T16:36:45.885Z,9.35
2023-04-02T16:39:22.252Z,8.68
2023-04-02T16:42:31.773Z,8.43
2023-04-02T16:45:35.644Z,9.93
2023-04-02T16:48:41.408Z,10.48
2023-04-02T16:51:49.092Z,12.05
2023-04-02T16:54:25.138Z,10.23
2023-04-02T16:57:10.535Z,8.77
2023-04-02T16:59:54.872Z,11.05
2023-04-02T17:02:28.299Z,13.95
2023-04-02T17:05:04.484Z,19.15
2023-04-02T17:07:44.956Z,20.70
2023-04-02T17:10:27.349Z,13.05
2023-04-02T17:13:02.381Z,11.70
2023-04-02T17:15:39.503Z,10.07
2023-04-02T17:18:16.947Z,9.20
2023-04-02T17:20:44.947Z,9.77
2023-04-02T17:23:14.519Z,10.98
2023-04-02T17:26:07.215Z,11.90
2023-04-02T17:28:37.203Z,11.57
2023-04-02T17:31:17.575Z,11.18
2023-04-02T17:33:48.825Z,12.15
2023-04-02T17:36:40.989Z,11.45
2023-04-02T17:39:35.915Z,12.48
2023-04-02T17:42:44.918Z,10.57
2023-04-02T17:45:34.739Z,10.75
2023-04-02T17:48:20.643Z,10.05
2023-04-02T17:51:19.037Z,9.48
2023-04-02T17:53:58.485Z,9.57
2023-04-02T17:56:50.809Z,9.10
2023-04-02T17:59:42.661Z,7.75
2023-04-02T18:02:39.343Z,9.70
2023-04-02T18:05:14.984Z,9.70
2023-04-02T18:11:14.927Z,8.85
2023-04-02T18:14:25.003Z,8.68
2023-04-02T18:17:25.123Z,8.10
2023-04-02T18:20:07.849Z,8.88
2023-04-02T18:22:55.539Z,7.53
2023-04-02T18:25:56.160Z,7.18
2023-04-02T18:28:35.756Z,7.75
2023-04-02T18:31:32.410Z,7.38
2023-04-02T18:34:21.266Z,7.45
2023-04-02T18:36:52.061Z,6.13
2023-04-02T18:39:22.486Z,7.85
2023-04-02T18:42:04.762Z,7.78
2023-04-02T18:44:44.871Z,7.30
2023-04-02T18:47:40.110Z,7.00
2023-04-02T18:50:24.357Z,6.90
2023-04-02T18:52:51.816Z,6.32
2023-04-02T18:55:23.051Z,7.13
2023-04-02T18:57:55.621Z,6.53
2023-04-02T19:00:30.861Z,6.43
2023-04-02T19:03:04.712Z,7.13
2023-04-02T19:05:35.940Z,7.18
2023-04-02T19:08:28.527Z,7.57
2023-04-02T19:11:07.330Z,7.32
2023-04-02T19:13:35.109Z,7.43
2023-04-02T19:16:23.637Z,7.10
2023-04-02T19:19:09.200Z,7.15
2023-04-02T19:21:53.274Z,6.85
2023-04-02T19:24:48.276Z,7.82
2023-04-02T19:27:34.559Z,7.07
2023-04-02T19:30:26.537Z,7.47
2023-04-02T19:33:19.534Z,7.38
2023-04-02T19:36:10.038Z,7.57
2023-04-02T19:38:37.290Z,8.15
2023-04-02T19:41:17.918Z,7.28
2023-04-02T19:43:45.609Z,7.10
2023-04-02T19:46:16.017Z,8.48
2023-04-02T19:48:57.981Z,7.65
2023-04-02T19:51:25.786Z,7.57
2023-04-02T19:53:55.149Z,6.88
2023-04-02T19:56:22.955Z,7.32
2023-04-02T19:58:50.711Z,6.65
2023-04-02T20:01:18.250Z,7.00
2023-04-02T20:03:45.916Z,7.43
2023-04-02T20:06:13.406Z,7.05
2023-04-02T20:08:40.633Z,7.70
2023-04-02T20:11:07.963Z,7.15
2023-04-02T20:13:35.556Z,7.40
2023-04-02T20:16:05.211Z,7.68
2023-04-02T20:18:32.741Z,7.30
2023-04-02T20:21:04.929Z,6.85
2023-04-02T20:23:33.201Z,6.63
2023-04-02T20:26:01.338Z,7.22
2023-04-02T20:28:29.057Z,6.63
2023-04-02T20:31:16.813Z,6.20
2023-04-02T20:33:45.227Z,6.57
2023-04-02T20:36:17.407Z,6.25
2023-04-02T20:38:45.913Z,6.43
2023-04-02T20:41:15.833Z,5.95
2023-04-02T20:43:43.410Z,6.43
2023-04-02T20:46:12.758Z,6.18
2023-04-02T20:48:40.605Z,5.90
2023-04-02T20:51:10.438Z,6.03
2023-04-02T20:53:38.464Z,5.80
2023-04-02T20:56:08.366Z,6.65
2023-04-02T20:58:36.476Z,5.60
2023-04-02T21:01:11.374Z,5.70
2023-04-02T21:03:40.156Z,5.35
2023-04-02T21:06:16.438Z,5.57
2023-04-02T21:08:44.389Z,5.78
2023-04-02T21:11:12.502Z,5.55
2023-04-02T21:13:42.575Z,4.53
2023-04-02T21:16:22.919Z,4.93
2023-04-02T21:18:52.311Z,5.10
2023-04-02T21:21:21.228Z,5.45
2023-04-02T21:23:54.046Z,5.10
2023-04-02T21:26:21.956Z,5.40
2023-04-02T21:28:49.606Z,4.93
2023-04-02T21:31:19.741Z,5.97
2023-04-02T21:33:50.968Z,5.72
2023-04-02T21:36:40.042Z,5.72
2023-04-02T21:39:10.213Z,5.63
2023-04-02T21:41:40.537Z,5.57
2023-04-02T21:44:10.406Z,5.57
2023-04-02T21:46:40.029Z,5.70
2023-04-02T21:49:11.223Z,6.50
2023-04-02T21:51:40.680Z,6.07
2023-04-02T21:54:08.513Z,5.75
2023-04-02T21:56:38.601Z,5.55
2023-04-02T21:59:07.961Z,6.20
2023-04-02T22:01:38.537Z,5.10
2023-04-02T22:04:08.038Z,6.03
2023-04-02T22:06:41.162Z,5.55
2023-04-02T22:09:12.035Z,6.38
2023-04-02T22:11:47.725Z,8.07
2023-04-02T22:14:15.483Z,8.65
2023-04-02T22:16:43.495Z,6.97
2023-04-02T22:19:17.608Z,6.30
2023-04-02T22:21:47.572Z,5.32
2023-04-02T22:24:16.476Z,6.00
2023-04-02T22:26:44.540Z,5.47
2023-04-02T22:29:12.298Z,5.43
2023-04-02T22:31:39.933Z,5.47
2023-04-02T22:34:07.816Z,5.72
2023-04-02T22:36:37.368Z,5.43
2023-04-02T22:39:07.058Z,5.35
2023-04-02T22:41:34.363Z,5.63
2023-04-02T22:44:03.310Z,6.18
2023-04-02T22:46:31.240Z,6.25
2023-04-02T22:48:59.298Z,5.40
2023-04-02T22:51:28.141Z,5.30
2023-04-02T22:53:56.939Z,6.75
2023-04-02T22:56:27.734Z,6.63
2023-04-02T22:58:54.874Z,5.78
2023-04-02T23:01:29.309Z,5.72
2023-04-02T23:03:56.946Z,6.13
2023-04-02T23:06:25.143Z,6.13
2023-04-02T23:08:52.495Z,5.97
2023-04-02T23:11:22.768Z,6.38
2023-04-02T23:13:51.711Z,5.85
2023-04-02T23:16:19.906Z,6.05
2023-04-02T23:18:51.028Z,5.00
2023-04-02T23:21:20.274Z,6.20
2023-04-02T23:23:48.654Z,6.30
2023-04-02T23:26:21.937Z,6.05
2023-04-02T23:28:50.389Z,6.80
2023-04-02T23:31:20.555Z,6.65
2023-04-02T23:33:48.393Z,7.32
2023-04-02T23:36:24.164Z,6.90
2023-04-02T23:38:56.764Z,6.75
2023-04-02T23:41:27.117Z,6.82
2023-04-02T23:43:56.047Z,6.45
2023-04-02T23:46:24.169Z,6.68
2023-04-02T23:48:52.524Z,6.05
2023-04-02T23:51:20.186Z,6.35
2023-04-02T23:53:48.150Z,6.82
2023-04-02T23:56:15.795Z,7.18
2023-04-02T23:58:43.208Z,6.88
